Lee, New Hampshire
Current Conditions -  °F | °C
As of 12:58 AM on Wednesday 26 Nov 2014 (Local Time) from KPSM Reporting Station
Overcast Overcast  
Wind Chill: 40°   Ceiling: 20000
Heat Index: 43°   Visibility: 10mi
Dew Point: 27°   Wind: 6mph
Humidity: 53%   Direction: 210°SSW
Pressure: 30.08"   Gusts: NA
Location:  43.12°N, 71.02°W
Report Text: KPSM 260458Z 21005KT 10SM FEW100 OVC200 06/M03 A3008 RMK AO2A SLP190 T00631027 401670063
Loading
Personal Weather Stations






























Interactive Weather Map New forecast layout! Learn more

10-Day Weather Forecast

Advertisements
Track Severe Weather on mobile